Friday, October 19, 2018, 2:53 AM EDT
Back to Local

KNHK, Nas Patuxent River Md

Location: Patuxent River, MD, United States Lat: 38.3
Local Time: 2:53 AM EDT ( 6:53 GMT) Lon: -76.4
Time Zone: US/Eastern Elev: 39 ft

Show me the last for .
Show Coded

Time T Td Feel RH Dir Speed Gust Alt SLP Vis Weather Sky Remarks
2018-10-19 01:52 37 37 - 100 - Calm - 30.38 30.38 10 CLR 6-hr Min Temp (2am): 37.0°F
6-hr Max Temp (2am): 48.9°F
2018-10-19 00:52 38 38 34 100 230° 5 - 30.38 30.38 10 CLR 24-hr Min Temp (1am): 37.9°F
24-hr Max Temp (1am): 61.0°F
2018-10-18 23:52 42 39 38 88 230° 6 - 30.39 30.39 10 CLR None
2018-10-18 22:52 46 38 - 73 - Calm - 30.41 30.40 10 CLR None
2018-10-18 21:52 46 39 44 76 220° 5 - 30.40 30.40 10 CLR None
2018-10-18 20:52 47 40 45 76 220° 5 - 30.40 30.40 10 CLR None
2018-10-18 19:52 48 38 - 67 - Calm - 30.40 30.40 10 CLR 6-hr Min Temp (8pm): 48.0°F
6-hr Max Temp (8pm): 61.0°F
2018-10-18 18:52 50 38 48 63 250° 5 - 30.39 30.39 10 CLR None
2018-10-18 17:52 58 33 - 38 290° 9 - 30.38 30.38 10 FEW070 None
2018-10-18 16:52 60 32 - 34 330° 13 - 30.38 30.38 10 FEW070 None
2018-10-18 15:52 61 32 - 33 330° 14 - 30.38 30.38 10 FEW060 None
2018-10-18 14:52 61 33 - 34 320° 14 - 30.39 30.39 10 FEW060 None
2018-10-18 13:52 60 32 - 34 330° 10 17 30.40 30.40 10 FEW080 FEW280 6-hr Min Temp (2pm): 52.0°F
6-hr Max Temp (2pm): 60.1°F
2018-10-18 12:52 59 31 - 34 330° 13 - 30.43 30.42 10 FEW280 None
2018-10-18 11:52 58 31 - 35 320° 15 - 30.44 30.44 10 FEW280 None
2018-10-18 10:52 57 29 - 34 340° 17 - 30.44 30.43 10 CLR None
2018-10-18 09:52 55 28 - 35 340° 18 24 30.44 30.44 10 FEW280 None
2018-10-18 08:52 54 29 - 38 340° 15 - 30.42 30.42 10 FEW030 FEW280 None
2018-10-18 07:52 52 30 - 42 340° 14 - 30.40 30.40 10 CLR 6-hr Min Temp (8am): 52.0°F
6-hr Max Temp (8am): 57.9°F
2018-10-18 06:52 52 30 - 42 330° 17 25 30.38 30.37 10 CLR None
2018-10-18 05:52 53 30 - 41 350° 17 - 30.35 30.35 10 CLR None
2018-10-18 04:52 54 33 - 44 350° 16 22 30.33 30.33 10 CLR None
2018-10-18 03:52 56 36 - 46 340° 16 - 30.30 30.30 10 CLR None

Support USWX by starting your Amazon purchase here.